METAR EVRA 222220Z 00000KT CAVOK M01/M04 Q1030 R36/190095 NOSIG =

Controllers Online

PositionControllerOnline
No controllers currently online

Booked ATC Today

No ATC booked yet.
Be the first for today!
* Times are UTC

The time is now

UTC: 

Local: 

Latvia vACC on twitter